AirNav   Pilot Hours Calculator
 
 1033 users online  

KHXF Hartford Municipal Airport
Hartford, Wisconsin, USA

GOING TO HARTFORD?


FAA INFORMATION EFFECTIVE 15 JULY 2021

Location

FAA Identifier: HXF
Lat/Long: 43-21-00.1700N 088-23-24.8670W
43-21.002833N 088-23.414450W
43.3500472,-88.3902408
(estimated)
Elevation: 1070 ft. / 326.1 m (surveyed)
Variation: 03W (2010)
From city: 2 miles NW of HARTFORD, WI
Time zone: UTC -5 (UTC -6 during Standard Time)
Zip code: 53027

Airport Operations

Airport use: Open to the public
Activation date: 06/1978
Control tower: no
ARTCC: CHICAGO CENTER
FSS: GREEN BAY FLIGHT SERVICE STATION
NOTAMs facility: GRB (NOTAM-D service available)
Attendance: UNATNDD
Pattern altitude: 1570 ft. MSL
TPA: 500 FT AGL ULTRALIGHTS.
Wind indicator: lighted
Segmented circle: yes
Lights: ACTVT REIL RWY 9 & 27; MIRL RWY 9/27 - CTAF
Beacon: white-green (lighted land airport)
Operates sunset to sunrise.

Airport Communications

CTAF/UNICOM: 123.0
MILWAUKEE APPROACH: 125.35 [0530-2330]
MILWAUKEE DEPARTURE: 125.35 [0530-2330]
WX AWOS-3 at ETB (12 nm E): 120.0 (262-334-6161)
WX AWOS-3 at UNU (14 nm W): 120.825 (920-386-5682)
WX AWOS-3 at RYV (18 nm SW): 119.975 (920-261-0734)
WX AWOS-3 at UES (20 nm S): 118.875 (262-521-5226)

Nearby radio navigation aids

VOR radial/distance  VOR name  Freq  Var
BJBr251/(12.3)WEST BEND VOR109.8001W
BAEr340/14.7BADGER VOR/DME116.4002E
OSHr167/39.1OSHKOSH VORTAC116.7502E

 
NDB name  Hdg/Dist  Freq  Var  ID
JUNEAU110/14.434401WUNU ..- -. ..-
ROCK RIVER055/18.137101WRYV .-. -.-- ...-

Airport Services

Fuel available: 100LL MOGAS
100LL:24 HR FUEL AVBL WITH CREDIT CARD.
Parking: hangars and tiedowns
Airframe service: NONE
Powerplant service: NONE
Bottled oxygen: NONE
Bulk oxygen: NONE

Runway Information

Runway 9/27

Dimensions: 3401 x 75 ft. / 1037 x 23 m
Surface: asphalt, in excellent condition
Weight bearing capacity: 
Single wheel: 8.0
Runway edge lights: medium intensity
RUNWAY 9  RUNWAY 27
Latitude: 43-21.040235N43-21.029422N
Longitude: 088-23.762017W088-22.995170W
Elevation: 1050.6 ft.1070.0 ft.
Traffic pattern: leftleft
Runway heading: 094 magnetic, 091 true274 magnetic, 271 true
Markings: nonprecision, in good conditionnonprecision, in good condition
Visual slope indicator: 4-light PAPI on left (3.00 degrees glide path)4-light PAPI on left (3.00 degrees glide path)
Runway end identifier lights: yesyes
Touchdown point: yes, no lightsyes, no lights

Runway 18/36

Dimensions: 2231 x 196 ft. / 680 x 60 m
Surface: turf, in fair condition
Runway edge markings: THR MARKED WITH ORANGE & WHITE WOODEN A-FRAMES.
RUNWAY 18  RUNWAY 36
Latitude: 43-21.136945N43-20.771090N
Longitude: 088-23.448360W088-23.489863W
Elevation: 1069.5 ft.1035.8 ft.
Traffic pattern: leftleft
Runway heading: 188 magnetic, 185 true008 magnetic, 005 true
Runway end identifier lights: nono
Touchdown point: yes, no lightsyes, no lights
Obstructions: 21 ft. road, 580 ft. from runway, 180 ft. left of centerline, 27:1 slope to clear52 ft. trees, 1300 ft. from runway, 100 ft. left of centerline, 25:1 slope to clear

Airport Ownership and Management from official FAA records

Ownership: Publicly-owned
Owner: CITY OF HARTFORD
109 N. MAIN
HARTFORD, WI 53027
Phone 262-673-8263
Manager: DARRYL KRANZ
109 N MAIN
HARTFORD, WI 53027
Phone 262-673-8225
EMAIL ADDRESS: DKRANZ@CI.HARTFORD.WI.US (ALL LOWER CASE)

Airport Operational Statistics

Aircraft based on the field: 97
Single engine airplanes: 81
Multi engine airplanes: 1
Jet airplanes: 1
Helicopters: 3
Gliders airplanes: 11
    
Aircraft operations: avg 42/day *
65% local general aviation
32% transient general aviation
3% air taxi
<1% military
* for 12-month period ending 09 September 2019

Additional Remarks

A23 RIGHT TFC PAT ULTRALIGHT & GLIDER ACFT.
A30A-18 SLIGHT DOWNHILL SLOPE.
A30A-36 +78 FT WATER TWR 3885 FT FM APCH END.
GLIDER & ULTRALIGHT ACTVTY ON ARPT.
FOR CD CTC CHICAGO ARTCC AT 630-906-8921.

Instrument Procedures

NOTE: All procedures below are presented as PDF files. If you need a reader for these files, you should download the free Adobe Reader.

NOT FOR NAVIGATION. Please procure official charts for flight.
FAA instrument procedures published for use from 15 July 2021 at 0901Z to 12 August 2021 at 0900z.

 
STARs - Standard Terminal Arrivals
GOPAC TWO (RNAV)   download (210KB)
 
IAPs - Instrument Approach Procedures
RNAV (GPS) RWY 09   download (194KB)
RNAV (GPS) RWY 27   download (189KB)
 
Departure Procedures
ACCRA FIVE (RNAV)   download (160KB)
UECKR SIX (RNAV)   download (178KB)
NOTE: Special Take-Off Minimums/Departure Procedures apply   download (599KB)

Other nearby airports with instrument procedures:

KETB - West Bend Municipal Airport (12 nm E)
KUNU - Dodge County Airport (14 nm W)
KRYV - Watertown Municipal Airport (18 nm SW)
KUES - Waukesha County Airport (20 nm S)
KMWC - Lawrence J Timmerman Airport (21 nm SE)
 
Loc | Ops | Rwys | IFR | FBO | Links
Com | Nav | Svcs | Stats | Notes
Area around KHXF (Hartford Municipal Airport)
 
Road maps at: MapQuest Bing Google
 
Aerial photo
WARNING: Photo may not be current or correct
Aerial photo of KHXF (Hartford Municipal Airport)
Photo by Erica Larsen
Photo taken 29-Nov-2015
looking east.

Do you have a better or more recent aerial photo of Hartford Municipal Airport that you would like to share? If so, please send us your photo.

 
Sectional chart

 
Airport distance calculator
Flying to Hartford Municipal Airport? Find the distance to fly.

From to KHXF

Sunrise and sunset
Times for 01-Aug-2021
 Local
(UTC-5)
 Zulu
(UTC)
Morning civil twilight05:1210:12
Sunrise05:4410:44
Sunset20:1501:15
Evening civil twilight20:4801:48

Current date and time
Zulu (UTC)  02-Aug-2021 01:46:45
Local (UTC-5)  01-Aug-2021 20:46:45
 
METAR
KETB 
12nm E 
020135Z AUTO 00000KT 10SM CLR 17/12 A3013 RMK AO2
KUNU 
14nm W 
020135Z AUTO 00000KT 10SM CLR 19/13 A3014 RMK AO2 T01860126
KRYV 
18nm SW 
020135Z AUTO 06003KT 10SM SCT080 19/12 A3012 RMK AO2 T01850117
KMWC 
22nm SE 
020045Z 04009G15KT 10SM CLR 20/10 A3013
KUES 
23nm SE 
020045Z 07008KT 10SM SCT080 18/13 A3014
TAF
KUES 
23nm SE 
012102Z 0121/0218 03012KT P6SM SCT050 FM012200 01009G18KT P6SM SCT040 FM020000 05007KT P6SM FEW090 FM021500 27003KT P6SM SCT050
NOTAMs
Click for the latest NOTAMs
NOTAMs are issued by the DoD/FAA and will open in a separate window not controlled by AirNav.

 

 
 

FBO, Fuel Providers, and Aircraft Ground Support

  
 Business Name 
 
 Contact 
 
 Services / Description 
 
Fuel Prices
 
Comments
  
City of Hartford (automated fuel pump) 262-673-8225
[web site]
[email]
Airport management, Aviation fuel

More info about City of Hartford (automated fuel pump)
independent
100LL Mogas
SS $4.30 $3.40 
 Updated 30-Jul-2021
 
   write
SS=Self service
Update Fuel Prices
 

Would you like to see your business listed on this page?

 If your business provides an interesting product or service to pilots, flight crews, aircraft, or users of the Hartford Municipal Airport, you should consider listing it here.  To start the listing process, click on the button below
 
Add a business
 

Other Pages about Hartford Municipal Airport

ci.hartford.wi.us/...
Page from the Wisconsin airport directory (PDF)
 
Update a link
 
Copyright © AirNav, LLC. All rights reserved. Privacy Policy  Contact